sensor_id;sensor_type;location;lat;lon;timestamp;pressure;altitude;pressure_sealevel;temperature;humidity
86012;BME280;76591;42.170;27.850;2024-03-08T00:01:28;101628.72;;;7.64;66.28
86012;BME280;76591;42.170;27.850;2024-03-08T00:03:54;101619.97;;;7.62;66.17
86012;BME280;76591;42.170;27.850;2024-03-08T00:06:19;101625.56;;;7.61;66.18
86012;BME280;76591;42.170;27.850;2024-03-08T00:08:45;101622.50;;;7.64;66.31
86012;BME280;76591;42.170;27.850;2024-03-08T00:11:10;101615.59;;;7.61;65.88
86012;BME280;76591;42.170;27.850;2024-03-08T00:13:36;101612.44;;;7.58;66.38
86012;BME280;76591;42.170;27.850;2024-03-08T00:16:02;101618.88;;;7.57;65.93
86012;BME280;76591;42.170;27.850;2024-03-08T00:18:27;101614.94;;;7.59;66.20
86012;BME280;76591;42.170;27.850;2024-03-08T00:20:54;101608.31;;;7.62;66.39
86012;BME280;76591;42.170;27.850;2024-03-08T00:23:19;101604.56;;;7.63;66.40
86012;BME280;76591;42.170;27.850;2024-03-08T00:25:45;101602.53;;;7.65;66.43
86012;BME280;76591;42.170;27.850;2024-03-08T00:28:10;101595.06;;;7.67;66.57
86012;BME280;76591;42.170;27.850;2024-03-08T00:30:40;101601.69;;;7.64;66.56
86012;BME280;76591;42.170;27.850;2024-03-08T00:33:05;101594.63;;;7.63;66.47
86012;BME280;76591;42.170;27.850;2024-03-08T00:35:31;101591.72;;;7.65;67.01
86012;BME280;76591;42.170;27.850;2024-03-08T00:37:57;101587.53;;;7.62;66.36
86012;BME280;76591;42.170;27.850;2024-03-08T00:40:22;101587.75;;;7.61;65.40
86012;BME280;76591;42.170;27.850;2024-03-08T00:42:48;101580.25;;;7.63;65.76
86012;BME280;76591;42.170;27.850;2024-03-08T00:45:13;101583.16;;;7.61;65.53
86012;BME280;76591;42.170;27.850;2024-03-08T00:47:39;101577.28;;;7.58;65.65
86012;BME280;76591;42.170;27.850;2024-03-08T00:50:05;101580.81;;;7.58;64.87
86012;BME280;76591;42.170;27.850;2024-03-08T00:52:31;101593.50;;;7.58;64.32
86012;BME280;76591;42.170;27.850;2024-03-08T00:54:57;101599.97;;;7.57;63.23
86012;BME280;76591;42.170;27.850;2024-03-08T00:57:22;101597.25;;;7.57;60.46
86012;BME280;76591;42.170;27.850;2024-03-08T00:59:48;101598.25;;;7.56;58.24
86012;BME280;76591;42.170;27.850;2024-03-08T01:02:13;101593.69;;;7.56;58.43
86012;BME280;76591;42.170;27.850;2024-03-08T01:04:39;101577.47;;;7.56;60.73
86012;BME280;76591;42.170;27.850;2024-03-08T01:07:05;101589.16;;;7.57;62.33
86012;BME280;76591;42.170;27.850;2024-03-08T01:09:31;101577.47;;;7.56;62.95
86012;BME280;76591;42.170;27.850;2024-03-08T01:11:57;101576.00;;;7.54;61.48
86012;BME280;76591;42.170;27.850;2024-03-08T01:14:23;101577.69;;;7.55;61.58
86012;BME280;76591;42.170;27.850;2024-03-08T01:16:49;101578.59;;;7.47;59.99
86012;BME280;76591;42.170;27.850;2024-03-08T01:19:15;101581.97;;;7.49;59.38
86012;BME280;76591;42.170;27.850;2024-03-08T01:21:41;101579.25;;;7.49;59.29
86012;BME280;76591;42.170;27.850;2024-03-08T01:24:07;101575.06;;;7.47;59.63
86012;BME280;76591;42.170;27.850;2024-03-08T01:26:33;101581.69;;;7.44;60.30
86012;BME280;76591;42.170;27.850;2024-03-08T01:29:02;101577.69;;;7.40;60.33
86012;BME280;76591;42.170;27.850;2024-03-08T01:31:31;101573.31;;;7.39;60.30
86012;BME280;76591;42.170;27.850;2024-03-08T01:33:57;101581.88;;;7.42;60.86
86012;BME280;76591;42.170;27.850;2024-03-08T01:36:23;101576.66;;;7.41;61.22
86012;BME280;76591;42.170;27.850;2024-03-08T01:38:50;101577.50;;;7.41;61.56
86012;BME280;76591;42.170;27.850;2024-03-08T01:41:15;101574.44;;;7.30;60.94
86012;BME280;76591;42.170;27.850;2024-03-08T01:43:43;101573.78;;;7.28;61.15
86012;BME280;76591;42.170;27.850;2024-03-08T01:46:09;101580.22;;;7.27;60.88
86012;BME280;76591;42.170;27.850;2024-03-08T01:48:38;101575.66;;;7.27;61.55
86012;BME280;76591;42.170;27.850;2024-03-08T01:51:04;101579.56;;;7.25;61.69
86012;BME280;76591;42.170;27.850;2024-03-08T01:53:31;101578.53;;;7.26;62.46
86012;BME280;76591;42.170;27.850;2024-03-08T01:55:58;101579.81;;;7.15;63.37
86012;BME280;76591;42.170;27.850;2024-03-08T01:58:27;101575.84;;;7.11;63.67
86012;BME280;76591;42.170;27.850;2024-03-08T02:00:54;101578.91;;;7.08;63.59
86012;BME280;76591;42.170;27.850;2024-03-08T02:03:20;101580.38;;;7.10;63.01
86012;BME280;76591;42.170;27.850;2024-03-08T02:05:46;101582.06;;;7.11;63.00
86012;BME280;76591;42.170;27.850;2024-03-08T02:08:12;101590.84;;;7.13;62.92
86012;BME280;76591;42.170;27.850;2024-03-08T02:10:43;101589.78;;;7.14;62.83
86012;BME280;76591;42.170;27.850;2024-03-08T02:13:10;101588.59;;;7.17;62.97
86012;BME280;76591;42.170;27.850;2024-03-08T02:15:55;101589.22;;;7.19;63.02
86012;BME280;76591;42.170;27.850;2024-03-08T02:18:22;101592.59;;;7.21;62.98
86012;BME280;76591;42.170;27.850;2024-03-08T02:20:49;101587.41;;;7.19;61.88
86012;BME280;76591;42.170;27.850;2024-03-08T02:23:16;101580.97;;;7.20;61.41
86012;BME280;76591;42.170;27.850;2024-03-08T02:25:42;101585.53;;;7.20;61.63
86012;BME280;76591;42.170;27.850;2024-03-08T02:28:11;101580.78;;;7.22;62.51
86012;BME280;76591;42.170;27.850;2024-03-08T02:30:38;101577.59;;;7.33;62.93
86012;BME280;76591;42.170;27.850;2024-03-08T02:33:05;101583.28;;;7.38;62.73
86012;BME280;76591;42.170;27.850;2024-03-08T02:35:31;101584.56;;;7.42;63.34
86012;BME280;76591;42.170;27.850;2024-03-08T02:37:57;101582.34;;;7.31;63.33
86012;BME280;76591;42.170;27.850;2024-03-08T02:40:23;101580.31;;;7.33;61.93
86012;BME280;76591;42.170;27.850;2024-03-08T02:42:49;101586.06;;;7.30;61.64
86012;BME280;76591;42.170;27.850;2024-03-08T02:45:15;101584.00;;;7.32;61.70
86012;BME280;76591;42.170;27.850;2024-03-08T02:47:40;101577.03;;;7.38;61.71
86012;BME280;76591;42.170;27.850;2024-03-08T02:50:07;101583.66;;;7.35;61.69
86012;BME280;76591;42.170;27.850;2024-03-08T02:52:35;101583.94;;;7.40;61.56
86012;BME280;76591;42.170;27.850;2024-03-08T02:55:01;101578.25;;;7.35;61.43
86012;BME280;76591;42.170;27.850;2024-03-08T02:57:27;101581.69;;;7.44;61.41
86012;BME280;76591;42.170;27.850;2024-03-08T02:59:56;101582.34;;;7.31;62.79
86012;BME280;76591;42.170;27.850;2024-03-08T03:02:21;101586.34;;;7.20;65.24
86012;BME280;76591;42.170;27.850;2024-03-08T03:04:48;101591.56;;;7.07;66.33
86012;BME280;76591;42.170;27.850;2024-03-08T03:07:14;101590.25;;;7.03;67.32
86012;BME280;76591;42.170;27.850;2024-03-08T03:09:40;101595.28;;;7.06;67.44
86012;BME280;76591;42.170;27.850;2024-03-08T03:12:06;101579.28;;;7.05;67.89
86012;BME280;76591;42.170;27.850;2024-03-08T03:14:37;101585.25;;;7.00;67.76
86012;BME280;76591;42.170;27.850;2024-03-08T03:17:05;101584.94;;;6.80;68.63
86012;BME280;76591;42.170;27.850;2024-03-08T03:19:31;101595.41;;;6.75;68.88
86012;BME280;76591;42.170;27.850;2024-03-08T03:21:56;101591.41;;;6.71;69.39
86012;BME280;76591;42.170;27.850;2024-03-08T03:24:23;101589.25;;;6.66;69.87
86012;BME280;76591;42.170;27.850;2024-03-08T03:26:49;101583.94;;;6.58;71.17
86012;BME280;76591;42.170;27.850;2024-03-08T03:29:15;101581.50;;;6.48;71.26
86012;BME280;76591;42.170;27.850;2024-03-08T03:31:42;101581.66;;;6.47;71.75
86012;BME280;76591;42.170;27.850;2024-03-08T03:34:12;101577.97;;;6.48;71.67
86012;BME280;76591;42.170;27.850;2024-03-08T03:36:38;101575.44;;;6.46;72.10
86012;BME280;76591;42.170;27.850;2024-03-08T03:39:08;101576.16;;;6.40;72.39
86012;BME280;76591;42.170;27.850;2024-03-08T03:41:41;101581.44;;;6.33;72.74
86012;BME280;76591;42.170;27.850;2024-03-08T03:44:07;101587.00;;;6.32;72.97
86012;BME280;76591;42.170;27.850;2024-03-08T03:46:33;101580.13;;;6.29;73.24
86012;BME280;76591;42.170;27.850;2024-03-08T03:48:59;101584.03;;;6.27;72.59
86012;BME280;76591;42.170;27.850;2024-03-08T03:51:25;101587.53;;;6.27;73.01
86012;BME280;76591;42.170;27.850;2024-03-08T03:53:51;101580.50;;;6.26;73.34
86012;BME280;76591;42.170;27.850;2024-03-08T03:56:18;101581.16;;;6.28;73.10
86012;BME280;76591;42.170;27.850;2024-03-08T03:58:43;101583.13;;;6.34;73.33
86012;BME280;76591;42.170;27.850;2024-03-08T04:01:09;101576.22;;;6.32;73.07
86012;BME280;76591;42.170;27.850;2024-03-08T04:03:35;101580.50;;;6.26;72.97
86012;BME280;76591;42.170;27.850;2024-03-08T04:06:05;101580.50;;;6.26;72.74
86012;BME280;76591;42.170;27.850;2024-03-08T04:08:31;101583.19;;;6.26;72.63
86012;BME280;76591;42.170;27.850;2024-03-08T04:11:00;101578.63;;;6.27;73.30
86012;BME280;76591;42.170;27.850;2024-03-08T04:13:26;101584.50;;;6.30;72.89
86012;BME280;76591;42.170;27.850;2024-03-08T04:15:51;101583.69;;;6.30;72.94
86012;BME280;76591;42.170;27.850;2024-03-08T04:18:17;101587.19;;;6.30;72.72
86012;BME280;76591;42.170;27.850;2024-03-08T04:20:44;101580.78;;;6.31;73.11
86012;BME280;76591;42.170;27.850;2024-03-08T04:23:10;101584.63;;;6.37;72.85
86012;BME280;76591;42.170;27.850;2024-03-08T04:25:36;101583.41;;;6.39;73.10
86012;BME280;76591;42.170;27.850;2024-03-08T04:28:02;101581.59;;;6.32;73.97
86012;BME280;76591;42.170;27.850;2024-03-08T04:30:27;101590.03;;;6.37;73.54
86012;BME280;76591;42.170;27.850;2024-03-08T04:32:54;101575.50;;;6.38;74.07
86012;BME280;76591;42.170;27.850;2024-03-08T04:35:19;101580.34;;;6.43;73.91
86012;BME280;76591;42.170;27.850;2024-03-08T04:37:46;101588.09;;;6.46;74.46
86012;BME280;76591;42.170;27.850;2024-03-08T04:40:11;101580.19;;;6.44;74.38
86012;BME280;76591;42.170;27.850;2024-03-08T04:42:38;101591.78;;;6.45;74.06
86012;BME280;76591;42.170;27.850;2024-03-08T04:45:05;101583.00;;;6.51;74.29
86012;BME280;76591;42.170;27.850;2024-03-08T04:47:30;101586.44;;;6.59;73.72
86012;BME280;76591;42.170;27.850;2024-03-08T04:49:57;101591.06;;;6.51;74.40
86012;BME280;76591;42.170;27.850;2024-03-08T04:52:23;101593.38;;;6.39;74.71
86012;BME280;76591;42.170;27.850;2024-03-08T04:54:49;101601.81;;;6.36;74.68
86012;BME280;76591;42.170;27.850;2024-03-08T04:57:14;101596.50;;;6.28;74.94
86012;BME280;76591;42.170;27.850;2024-03-08T04:59:40;101603.38;;;6.30;75.06
86012;BME280;76591;42.170;27.850;2024-03-08T05:02:06;101593.69;;;6.21;75.54
86012;BME280;76591;42.170;27.850;2024-03-08T05:04:32;101603.47;;;6.14;75.76
86012;BME280;76591;42.170;27.850;2024-03-08T05:06:58;101603.03;;;6.10;75.93
86012;BME280;76591;42.170;27.850;2024-03-08T05:09:27;101600.53;;;6.01;75.98
86012;BME280;76591;42.170;27.850;2024-03-08T05:11:54;101600.91;;;5.97;76.26
86012;BME280;76591;42.170;27.850;2024-03-08T05:14:20;101610.13;;;6.03;76.37
86012;BME280;76591;42.170;27.850;2024-03-08T05:16:46;101608.09;;;6.05;76.63
86012;BME280;76591;42.170;27.850;2024-03-08T05:19:16;101601.88;;;6.05;76.48
86012;BME280;76591;42.170;27.850;2024-03-08T05:21:48;101605.59;;;6.04;76.56
86012;BME280;76591;42.170;27.850;2024-03-08T05:24:14;101605.06;;;6.08;77.27
86012;BME280;76591;42.170;27.850;2024-03-08T05:26:41;101611.09;;;6.10;76.91
86012;BME280;76591;42.170;27.850;2024-03-08T05:29:10;101603.19;;;6.09;76.78
86012;BME280;76591;42.170;27.850;2024-03-08T05:31:46;101601.94;;;6.19;77.11
86012;BME280;76591;42.170;27.850;2024-03-08T05:34:12;101605.47;;;6.20;77.01
86012;BME280;76591;42.170;27.850;2024-03-08T05:36:40;101606.66;;;6.17;77.14
86012;BME280;76591;42.170;27.850;2024-03-08T05:39:06;101616.53;;;6.25;77.08
86012;BME280;76591;42.170;27.850;2024-03-08T05:41:32;101604.38;;;6.29;77.35
86012;BME280;76591;42.170;27.850;2024-03-08T05:43:58;101608.91;;;6.37;77.75
86012;BME280;76591;42.170;27.850;2024-03-08T05:46:24;101605.88;;;6.32;77.85
86012;BME280;76591;42.170;27.850;2024-03-08T05:48:49;101608.56;;;6.32;77.86
86012;BME280;76591;42.170;27.850;2024-03-08T05:51:15;101620.69;;;6.36;77.34
86012;BME280;76591;42.170;27.850;2024-03-08T05:53:40;101618.38;;;6.33;77.89
86012;BME280;76591;42.170;27.850;2024-03-08T05:56:06;101619.84;;;6.35;77.44
86012;BME280;76591;42.170;27.850;2024-03-08T05:58:32;101626.69;;;6.46;77.33
86012;BME280;76591;42.170;27.850;2024-03-08T06:00:58;101628.19;;;6.49;77.96
86012;BME280;76591;42.170;27.850;2024-03-08T06:03:23;101628.63;;;6.60;77.24
86012;BME280;76591;42.170;27.850;2024-03-08T06:05:49;101630.00;;;6.56;77.64
86012;BME280;76591;42.170;27.850;2024-03-08T06:08:15;101627.28;;;6.56;77.97
86012;BME280;76591;42.170;27.850;2024-03-08T06:10:41;101632.16;;;6.61;77.66
86012;BME280;76591;42.170;27.850;2024-03-08T06:13:07;101630.41;;;6.68;78.48
86012;BME280;76591;42.170;27.850;2024-03-08T06:15:33;101623.44;;;6.74;78.44
86012;BME280;76591;42.170;27.850;2024-03-08T06:18:00;101628.28;;;6.78;78.06
86012;BME280;76591;42.170;27.850;2024-03-08T06:20:25;101640.97;;;6.78;77.88
86012;BME280;76591;42.170;27.850;2024-03-08T06:22:52;101638.78;;;6.73;77.46
86012;BME280;76591;42.170;27.850;2024-03-08T06:25:18;101630.69;;;6.73;77.56
86012;BME280;76591;42.170;27.850;2024-03-08T06:27:44;101633.75;;;6.70;77.34
86012;BME280;76591;42.170;27.850;2024-03-08T06:30:11;101635.63;;;6.70;77.40
86012;BME280;76591;42.170;27.850;2024-03-08T06:32:37;101637.66;;;6.68;77.80
86012;BME280;76591;42.170;27.850;2024-03-08T06:35:04;101639.22;;;6.62;77.51
86012;BME280;76591;42.170;27.850;2024-03-08T06:37:33;101641.34;;;6.67;78.26
86012;BME280;76591;42.170;27.850;2024-03-08T06:39:58;101639.97;;;6.71;78.02
86012;BME280;76591;42.170;27.850;2024-03-08T06:42:26;101650.78;;;6.71;77.74
86012;BME280;76591;42.170;27.850;2024-03-08T06:44:53;101641.84;;;6.70;77.59
86012;BME280;76591;42.170;27.850;2024-03-08T06:47:21;101638.25;;;6.78;77.84
86012;BME280;76591;42.170;27.850;2024-03-08T06:49:46;101645.50;;;6.77;77.24
86012;BME280;76591;42.170;27.850;2024-03-08T06:52:12;101642.91;;;6.84;77.41
86012;BME280;76591;42.170;27.850;2024-03-08T06:54:38;101652.22;;;6.81;77.36
86012;BME280;76591;42.170;27.850;2024-03-08T06:57:04;101648.28;;;6.84;77.01
86012;BME280;76591;42.170;27.850;2024-03-08T06:59:31;101655.00;;;6.88;76.94
86012;BME280;76591;42.170;27.850;2024-03-08T07:01:57;101656.88;;;6.88;77.08
86012;BME280;76591;42.170;27.850;2024-03-08T07:04:25;101652.41;;;6.95;76.54
86012;BME280;76591;42.170;27.850;2024-03-08T07:06:57;101654.78;;;6.98;76.71
86012;BME280;76591;42.170;27.850;2024-03-08T07:09:26;101652.06;;;6.98;77.03
86012;BME280;76591;42.170;27.850;2024-03-08T07:11:52;101654.13;;;6.96;76.83
86012;BME280;76591;42.170;27.850;2024-03-08T07:14:23;101655.44;;;7.00;76.45
86012;BME280;76591;42.170;27.850;2024-03-08T07:16:50;101657.09;;;7.01;76.80
86012;BME280;76591;42.170;27.850;2024-03-08T07:19:16;101658.41;;;7.05;77.18
86012;BME280;76591;42.170;27.850;2024-03-08T07:21:43;101658.69;;;7.10;76.93
86012;BME280;76591;42.170;27.850;2024-03-08T07:24:10;101655.34;;;7.08;77.04
86012;BME280;76591;42.170;27.850;2024-03-08T07:26:39;101657.03;;;7.09;76.65
86012;BME280;76591;42.170;27.850;2024-03-08T07:29:04;101659.34;;;7.12;76.60
86012;BME280;76591;42.170;27.850;2024-03-08T07:31:30;101654.81;;;7.13;76.62
86012;BME280;76591;42.170;27.850;2024-03-08T07:34:01;101659.19;;;7.14;76.13
86012;BME280;76591;42.170;27.850;2024-03-08T07:36:28;101653.41;;;7.17;76.68
86012;BME280;76591;42.170;27.850;2024-03-08T07:38:54;101653.03;;;7.20;76.75
86012;BME280;76591;42.170;27.850;2024-03-08T07:41:20;101659.94;;;7.22;77.10
86012;BME280;76591;42.170;27.850;2024-03-08T07:43:46;101655.84;;;7.27;76.98
86012;BME280;76591;42.170;27.850;2024-03-08T07:46:12;101655.84;;;7.27;77.20
86012;BME280;76591;42.170;27.850;2024-03-08T07:48:38;101661.25;;;7.27;77.42
86012;BME280;76591;42.170;27.850;2024-03-08T07:51:05;101652.19;;;7.34;77.09
86012;BME280;76591;42.170;27.850;2024-03-08T07:53:31;101649.16;;;7.37;77.50
86012;BME280;76591;42.170;27.850;2024-03-08T07:55:57;101649.81;;;7.39;77.22
86012;BME280;76591;42.170;27.850;2024-03-08T07:58:22;101652.59;;;7.46;77.81
86012;BME280;76591;42.170;27.850;2024-03-08T08:00:49;101657.78;;;7.48;77.89
86012;BME280;76591;42.170;27.850;2024-03-08T08:03:15;101660.97;;;7.51;77.67
86012;BME280;76591;42.170;27.850;2024-03-08T08:05:41;101662.84;;;7.51;77.67
86012;BME280;76591;42.170;27.850;2024-03-08T08:08:08;101660.69;;;7.46;77.76
86012;BME280;76591;42.170;27.850;2024-03-08T08:10:36;101653.03;;;7.50;78.11
86012;BME280;76591;42.170;27.850;2024-03-08T08:13:02;101654.19;;;7.55;77.62
86012;BME280;76591;42.170;27.850;2024-03-08T08:15:30;101657.53;;;7.57;77.56
86012;BME280;76591;42.170;27.850;2024-03-08T08:17:55;101652.97;;;7.58;77.58
86012;BME280;76591;42.170;27.850;2024-03-08T08:20:21;101659.50;;;7.49;77.63
86012;BME280;76591;42.170;27.850;2024-03-08T08:22:48;101655.31;;;7.46;77.33
86012;BME280;76591;42.170;27.850;2024-03-08T08:25:14;101659.00;;;7.45;77.35
86012;BME280;76591;42.170;27.850;2024-03-08T08:27:41;101657.16;;;7.46;77.44
86012;BME280;76591;42.170;27.850;2024-03-08T08:30:10;101657.63;;;7.49;77.69
86012;BME280;76591;42.170;27.850;2024-03-08T08:32:37;101658.53;;;7.56;77.94
86012;BME280;76591;42.170;27.850;2024-03-08T08:35:06;101658.38;;;7.58;77.86
86012;BME280;76591;42.170;27.850;2024-03-08T08:37:33;101659.00;;;7.60;77.72
86012;BME280;76591;42.170;27.850;2024-03-08T08:40:01;101664.25;;;7.61;77.91
86012;BME280;76591;42.170;27.850;2024-03-08T08:42:31;101656.22;;;7.53;78.13
86012;BME280;76591;42.170;27.850;2024-03-08T08:44:57;101654.91;;;7.49;77.81
86012;BME280;76591;42.170;27.850;2024-03-08T08:47:23;101657.53;;;7.57;78.04
86012;BME280;76591;42.170;27.850;2024-03-08T08:49:48;101662.56;;;7.60;78.26
86012;BME280;76591;42.170;27.850;2024-03-08T08:52:16;101668.81;;;7.61;77.89
86012;BME280;76591;42.170;27.850;2024-03-08T08:54:42;101664.41;;;7.60;78.34
86012;BME280;76591;42.170;27.850;2024-03-08T08:57:10;101668.25;;;7.66;78.23
86012;BME280;76591;42.170;27.850;2024-03-08T08:59:36;101675.78;;;7.55;78.28
86012;BME280;76591;42.170;27.850;2024-03-08T09:02:02;101670.56;;;7.54;78.82
86012;BME280;76591;42.170;27.850;2024-03-08T09:04:29;101675.78;;;7.55;78.64
86012;BME280;76591;42.170;27.850;2024-03-08T09:06:56;101668.34;;;7.57;78.59
86012;BME280;76591;42.170;27.850;2024-03-08T09:09:22;101669.63;;;7.47;78.27
86012;BME280;76591;42.170;27.850;2024-03-08T09:11:48;101671.69;;;7.45;78.79
86012;BME280;76591;42.170;27.850;2024-03-08T09:14:15;101678.47;;;7.40;78.65
86012;BME280;76591;42.170;27.850;2024-03-08T09:16:41;101679.31;;;7.41;79.29
86012;BME280;76591;42.170;27.850;2024-03-08T09:19:07;101681.34;;;7.39;78.74
86012;BME280;76591;42.170;27.850;2024-03-08T09:21:36;101681.09;;;7.34;78.38
86012;BME280;76591;42.170;27.850;2024-03-08T09:24:02;101678.56;;;7.32;78.43
86012;BME280;76591;42.170;27.850;2024-03-08T09:26:28;101679.41;;;7.33;79.15
86012;BME280;76591;42.170;27.850;2024-03-08T09:28:53;101680.91;;;7.35;79.16
86012;BME280;76591;42.170;27.850;2024-03-08T09:31:22;101681.19;;;7.40;79.13
86012;BME280;76591;42.170;27.850;2024-03-08T09:33:48;101692.81;;;7.41;78.54
86012;BME280;76591;42.170;27.850;2024-03-08T09:36:13;101685.09;;;7.38;78.13
86012;BME280;76591;42.170;27.850;2024-03-08T09:38:42;101686.31;;;7.35;77.31
86012;BME280;76591;42.170;27.850;2024-03-08T09:41:07;101686.22;;;7.29;76.92
86012;BME280;76591;42.170;27.850;2024-03-08T09:43:36;101690.69;;;7.21;76.82
86012;BME280;76591;42.170;27.850;2024-03-08T09:46:03;101688.81;;;7.22;77.05
86012;BME280;76591;42.170;27.850;2024-03-08T09:48:31;101692.63;;;7.28;76.60
86012;BME280;76591;42.170;27.850;2024-03-08T09:50:57;101691.41;;;7.30;77.07
86012;BME280;76591;42.170;27.850;2024-03-08T09:53:23;101693.47;;;7.28;76.60
86012;BME280;76591;42.170;27.850;2024-03-08T09:55:49;101687.50;;;7.18;76.59
86012;BME280;76591;42.170;27.850;2024-03-08T09:58:16;101689.38;;;7.17;76.94
86012;BME280;76591;42.170;27.850;2024-03-08T10:00:52;101699.41;;;7.23;76.97
86012;BME280;76591;42.170;27.850;2024-03-08T10:03:19;101695.31;;;7.28;77.36
86012;BME280;76591;42.170;27.850;2024-03-08T10:05:45;101694.97;;;7.31;77.48
86012;BME280;76591;42.170;27.850;2024-03-08T10:08:12;101693.19;;;7.23;76.74
86012;BME280;76591;42.170;27.850;2024-03-08T10:10:39;101695.31;;;7.13;76.44
86012;BME280;76591;42.170;27.850;2024-03-08T10:13:06;101697.25;;;7.19;76.79
86012;BME280;76591;42.170;27.850;2024-03-08T10:15:32;101694.00;;;7.09;76.90
86012;BME280;76591;42.170;27.850;2024-03-08T10:18:00;101698.44;;;7.01;76.52
86012;BME280;76591;42.170;27.850;2024-03-08T10:20:30;101698.97;;;6.97;75.64
86012;BME280;76591;42.170;27.850;2024-03-08T10:23:03;101694.28;;;6.91;75.09
86012;BME280;76591;42.170;27.850;2024-03-08T10:25:34;101686.41;;;6.89;77.61
86012;BME280;76591;42.170;27.850;2024-03-08T10:28:00;101693.13;;;6.93;78.66
86012;BME280;76591;42.170;27.850;2024-03-08T10:30:29;101675.06;;;6.94;79.75
86012;BME280;76591;42.170;27.850;2024-03-08T10:32:55;101690.75;;;6.90;80.33
86012;BME280;76591;42.170;27.850;2024-03-08T10:35:22;101684.16;;;6.93;80.73
86012;BME280;76591;42.170;27.850;2024-03-08T10:37:50;101689.56;;;6.93;81.11
86012;BME280;76591;42.170;27.850;2024-03-08T10:40:27;101684.16;;;6.93;81.22
86012;BME280;76591;42.170;27.850;2024-03-08T10:42:56;101683.69;;;6.89;81.40
86012;BME280;76591;42.170;27.850;2024-03-08T10:45:38;101686.56;;;6.88;81.45
86012;BME280;76591;42.170;27.850;2024-03-08T10:48:29;101683.03;;;6.87;81.73
86012;BME280;76591;42.170;27.850;2024-03-08T10:51:07;101686.28;;;6.83;81.84
86012;BME280;76591;42.170;27.850;2024-03-08T10:53:34;101691.69;;;6.83;82.14
86012;BME280;76591;42.170;27.850;2024-03-08T10:55:59;101687.94;;;6.84;81.76
86012;BME280;76591;42.170;27.850;2024-03-08T10:58:27;101683.88;;;6.88;81.91
86012;BME280;76591;42.170;27.850;2024-03-08T11:00:54;101686.28;;;6.83;81.93
86012;BME280;76591;42.170;27.850;2024-03-08T11:06:08;101675.28;;;6.84;82.30
86012;BME280;76591;42.170;27.850;2024-03-08T11:08:37;101676.50;;;6.81;82.39
86012;BME280;76591;42.170;27.850;2024-03-08T11:11:04;101672.47;;;6.77;82.67
86012;BME280;76591;42.170;27.850;2024-03-08T11:13:42;101685.81;;;6.79;82.75
86012;BME280;76591;42.170;27.850;2024-03-08T11:16:56;101695.03;;;6.85;82.57
86012;BME280;76591;42.170;27.850;2024-03-08T11:21:37;101688.44;;;6.87;82.60
86012;BME280;76591;42.170;27.850;2024-03-08T11:24:13;101687.16;;;6.98;82.12
86012;BME280;76591;42.170;27.850;2024-03-08T11:26:39;101689.44;;;7.09;82.10
86012;BME280;76591;42.170;27.850;2024-03-08T11:32:04;101678.88;;;6.99;82.21
86012;BME280;76591;42.170;27.850;2024-03-08T11:34:33;101680.16;;;6.89;82.60
86012;BME280;76591;42.170;27.850;2024-03-08T11:36:59;101688.13;;;6.82;82.17
86012;BME280;76591;42.170;27.850;2024-03-08T11:39:26;101679.25;;;6.73;82.63
86012;BME280;76591;42.170;27.850;2024-03-08T11:41:52;101682.81;;;6.74;82.53
86012;BME280;76591;42.170;27.850;2024-03-08T11:44:19;101682.44;;;6.77;82.24
86012;BME280;76591;42.170;27.850;2024-03-08T11:46:45;101677.88;;;6.77;82.35
86012;BME280;76591;42.170;27.850;2024-03-08T11:49:14;101677.59;;;6.72;82.26
86012;BME280;76591;42.170;27.850;2024-03-08T11:51:40;101675.25;;;6.69;82.52
86012;BME280;76591;42.170;27.850;2024-03-08T11:54:11;101686.22;;;6.68;82.49
86012;BME280;76591;42.170;27.850;2024-03-08T11:56:38;101680.00;;;6.67;82.39
86012;BME280;76591;42.170;27.850;2024-03-08T11:59:03;101686.78;;;6.63;82.74
86012;BME280;76591;42.170;27.850;2024-03-08T12:01:30;101685.75;;;6.64;83.31
86012;BME280;76591;42.170;27.850;2024-03-08T12:03:57;101687.06;;;6.68;83.22
86012;BME280;76591;42.170;27.850;2024-03-08T12:06:27;101685.19;;;6.69;82.50
86012;BME280;76591;42.170;27.850;2024-03-08T12:09:03;101690.59;;;6.69;83.07
86012;BME280;76591;42.170;27.850;2024-03-08T12:11:28;101685.13;;;6.77;83.52
86012;BME280;76591;42.170;27.850;2024-03-08T12:13:54;101689.66;;;6.85;82.79
86012;BME280;76591;42.170;27.850;2024-03-08T12:16:23;101684.81;;;6.95;82.36
86012;BME280;76591;42.170;27.850;2024-03-08T12:18:51;101691.19;;;7.02;82.67
86012;BME280;76591;42.170;27.850;2024-03-08T12:21:19;101695.19;;;7.06;82.17
86012;BME280;76591;42.170;27.850;2024-03-08T12:24:09;101695.38;;;7.05;82.43
86012;BME280;76591;42.170;27.850;2024-03-08T12:26:38;101685.41;;;7.05;82.21
86012;BME280;76591;42.170;27.850;2024-03-08T12:29:16;101697.78;;;6.99;81.79
86012;BME280;76591;42.170;27.850;2024-03-08T12:31:50;101695.06;;;6.99;81.89
86012;BME280;76591;42.170;27.850;2024-03-08T12:34:17;101695.94;;;7.00;81.78
86012;BME280;76591;42.170;27.850;2024-03-08T12:36:50;101697.31;;;6.96;81.54
86012;BME280;76591;42.170;27.850;2024-03-08T12:39:18;101699.69;;;6.91;81.36
86012;BME280;76591;42.170;27.850;2024-03-08T12:41:54;101695.34;;;6.90;81.52
86012;BME280;76591;42.170;27.850;2024-03-08T12:44:20;101700.06;;;6.88;81.45
86012;BME280;76591;42.170;27.850;2024-03-08T12:46:49;101696.81;;;6.92;81.26
86012;BME280;76591;42.170;27.850;2024-03-08T12:49:14;101684.41;;;6.83;81.40
86012;BME280;76591;42.170;27.850;2024-03-08T12:51:44;101687.84;;;6.77;81.81
86012;BME280;76591;42.170;27.850;2024-03-08T12:54:10;101693.06;;;6.78;81.64
86012;BME280;76591;42.170;27.850;2024-03-08T12:56:36;101694.28;;;6.76;81.56
86012;BME280;76591;42.170;27.850;2024-03-08T12:59:07;101692.69;;;6.81;81.65